createdAt,value
2018-12-18T00:00:30.882Z,17.50
2018-12-18T00:01:30.669Z,17.90
2018-12-18T00:02:30.619Z,16.50
2018-12-18T00:03:30.592Z,15.70
2018-12-18T00:04:30.433Z,19.50
2018-12-18T00:05:30.330Z,18.60
2018-12-18T00:06:30.318Z,16.60
2018-12-18T00:07:30.169Z,15.30
2018-12-18T00:08:30.115Z,16.40
2018-12-18T00:09:29.977Z,18.90
2018-12-18T00:10:29.928Z,18.10
2018-12-18T00:11:29.817Z,16.30
2018-12-18T00:12:29.868Z,14.20
2018-12-18T00:13:29.640Z,16.00
2018-12-18T00:14:29.616Z,17.50
2018-12-18T00:15:29.457Z,16.90
2018-12-18T00:16:29.436Z,19.40
2018-12-18T00:17:29.308Z,15.90
2018-12-18T00:18:29.249Z,15.70
2018-12-18T00:19:29.121Z,16.00
2018-12-18T00:20:29.057Z,25.00
2018-12-18T00:21:28.964Z,17.10
2018-12-18T00:22:28.905Z,16.40
2018-12-18T00:23:28.782Z,18.40
2018-12-18T00:24:28.817Z,18.90
2018-12-18T00:25:28.624Z,21.60
2018-12-18T00:26:28.605Z,18.60
2018-12-18T00:27:28.556Z,17.50
2018-12-18T00:28:28.404Z,18.60
2018-12-18T00:29:28.282Z,18.70
2018-12-18T00:30:28.255Z,17.40
2018-12-18T00:31:28.103Z,18.80
2018-12-18T00:32:28.031Z,15.40
2018-12-18T00:33:28.073Z,18.30
2018-12-18T00:34:27.841Z,16.80
2018-12-18T00:35:27.761Z,21.20
2018-12-18T00:36:27.742Z,19.70
2018-12-18T00:37:27.585Z,18.70
2018-12-18T00:38:27.525Z,18.00
2018-12-18T00:39:27.450Z,17.40
2018-12-18T00:40:27.330Z,17.30
2018-12-18T00:41:27.236Z,16.60
2018-12-18T00:42:27.279Z,18.30
2018-12-18T00:43:27.098Z,17.70
2018-12-18T00:44:27.081Z,16.80
2018-12-18T00:45:26.907Z,18.20
2018-12-18T00:46:26.886Z,18.10
2018-12-18T00:47:26.742Z,21.00
2018-12-18T00:48:26.732Z,16.90
2018-12-18T00:49:26.554Z,20.90
2018-12-18T00:50:26.498Z,15.90
2018-12-18T00:51:26.377Z,22.70
2018-12-18T00:52:26.410Z,17.90
2018-12-18T00:53:26.237Z,18.50
2018-12-18T00:54:26.157Z,20.00
2018-12-18T00:55:26.129Z,20.40
2018-12-18T00:56:25.966Z,17.00
2018-12-18T00:57:25.886Z,17.80
2018-12-18T00:58:25.886Z,18.90
2018-12-18T00:59:25.704Z,16.80
2018-12-18T01:00:25.679Z,18.90
2018-12-18T01:01:25.564Z,18.60
2018-12-18T01:02:25.459Z,17.70
2018-12-18T01:03:25.384Z,16.40
2018-12-18T01:04:26.286Z,17.10
2018-12-18T01:05:25.198Z,19.40
2018-12-18T01:06:25.193Z,16.50
2018-12-18T01:07:25.014Z,16.20
2018-12-18T01:08:24.972Z,17.00
2018-12-18T01:09:24.894Z,17.00
2018-12-18T01:10:24.767Z,17.10
2018-12-18T01:11:24.686Z,15.70
2018-12-18T01:12:24.717Z,18.80
2018-12-18T01:13:24.535Z,17.70
2018-12-18T01:14:24.542Z,15.00
2018-12-18T01:15:24.345Z,18.30
2018-12-18T01:16:24.324Z,21.00
2018-12-18T01:17:24.168Z,18.20
2018-12-18T01:18:24.115Z,16.70
2018-12-18T01:19:24.055Z,17.20
2018-12-18T01:20:23.916Z,19.60
2018-12-18T01:21:23.829Z,18.90
2018-12-18T01:22:23.741Z,16.60
2018-12-18T01:23:23.686Z,19.80
2018-12-18T01:24:23.589Z,16.30
2018-12-18T01:25:23.574Z,23.10
2018-12-18T01:26:23.383Z,20.40
2018-12-18T01:27:23.309Z,17.40
2018-12-18T01:28:23.248Z,17.80
2018-12-18T01:29:23.198Z,19.30
2018-12-18T01:30:23.061Z,15.40
2018-12-18T01:31:22.970Z,19.70
2018-12-18T01:32:22.894Z,19.50
2018-12-18T01:33:22.863Z,18.20
2018-12-18T01:34:22.737Z,15.80
2018-12-18T01:35:22.639Z,19.60
2018-12-18T01:36:22.628Z,16.20
2018-12-18T01:37:22.468Z,20.70
2018-12-18T01:38:22.397Z,21.20
2018-12-18T01:39:22.349Z,19.10
2018-12-18T01:40:22.208Z,23.10
2018-12-18T01:41:22.124Z,19.30
2018-12-18T01:42:22.056Z,16.40
2018-12-18T01:43:21.982Z,19.20
2018-12-18T01:44:21.885Z,20.00
2018-12-18T01:45:21.864Z,19.10
2018-12-18T01:46:21.695Z,18.70
2018-12-18T01:47:21.614Z,18.10
2018-12-18T01:48:21.617Z,20.70
2018-12-18T01:49:21.439Z,18.60
2018-12-18T01:50:21.362Z,17.30
2018-12-18T01:51:21.290Z,21.90
2018-12-18T01:52:21.190Z,18.60
2018-12-18T01:53:21.107Z,18.20
2018-12-18T01:54:21.094Z,22.80
2018-12-18T01:55:20.916Z,20.00
2018-12-18T01:56:20.927Z,20.50
2018-12-18T01:57:20.753Z,17.50
2018-12-18T01:58:20.780Z,20.40
2018-12-18T01:59:20.584Z,22.30
2018-12-18T02:00:20.545Z,20.00
2018-12-18T02:01:20.416Z,20.20
2018-12-18T02:02:20.337Z,24.30
2018-12-18T02:03:20.261Z,20.40
2018-12-18T02:04:20.158Z,21.70
2018-12-18T02:05:20.175Z,22.00
2018-12-18T02:06:19.986Z,21.80
2018-12-18T02:07:19.884Z,21.00
2018-12-18T02:08:19.922Z,20.50
2018-12-18T02:09:19.723Z,21.10
2018-12-18T02:10:19.701Z,20.70
2018-12-18T02:11:19.565Z,21.00
2018-12-18T02:12:19.515Z,23.60
2018-12-18T02:13:19.415Z,20.70
2018-12-18T02:14:19.332Z,21.40
2018-12-18T02:15:19.194Z,21.10
2018-12-18T02:16:19.223Z,20.80
2018-12-18T02:17:19.037Z,20.50
2018-12-18T02:18:19.015Z,22.00
2018-12-18T02:19:18.871Z,22.40
2018-12-18T02:20:18.843Z,22.20
2018-12-18T02:21:18.683Z,24.20
2018-12-18T02:22:18.640Z,22.40
2018-12-18T02:23:18.536Z,24.80
2018-12-18T02:24:18.483Z,22.80
2018-12-18T02:25:18.364Z,23.00
2018-12-18T02:26:18.374Z,19.80
2018-12-18T02:27:18.170Z,24.30
2018-12-18T02:28:18.082Z,24.00
2018-12-18T02:29:18.113Z,27.90
2018-12-18T02:30:17.902Z,25.90
2018-12-18T02:31:17.834Z,22.80
2018-12-18T02:32:17.785Z,24.00
2018-12-18T02:33:17.648Z,24.60
2018-12-18T02:34:17.562Z,24.20
2018-12-18T02:35:17.484Z,24.90
2018-12-18T02:36:17.418Z,23.30
2018-12-18T02:37:17.316Z,23.80
2018-12-18T02:38:17.228Z,24.70
2018-12-18T02:39:17.149Z,21.80
2018-12-18T02:40:17.139Z,25.40
2018-12-18T02:41:16.951Z,19.90
2018-12-18T02:42:16.949Z,21.20
2018-12-18T02:43:16.777Z,24.00
2018-12-18T02:44:16.701Z,23.50
2018-12-18T02:45:16.651Z,19.60
2018-12-18T02:46:16.512Z,21.80
2018-12-18T02:47:16.422Z,27.90
2018-12-18T02:48:16.377Z,25.40
2018-12-18T02:49:16.268Z,23.10
2018-12-18T02:50:16.170Z,19.90
2018-12-18T02:51:16.198Z,21.80
2018-12-18T02:52:16.002Z,27.00
2018-12-18T02:53:15.907Z,21.10
2018-12-18T02:54:15.935Z,27.80
2018-12-18T02:55:15.749Z,26.90
2018-12-18T02:56:15.635Z,27.90
2018-12-18T02:57:15.617Z,25.70
2018-12-18T02:58:15.484Z,29.40
2018-12-18T02:59:15.405Z,22.40
2018-12-18T03:00:15.334Z,27.90
2018-12-18T03:01:15.211Z,28.10
2018-12-18T03:02:15.245Z,22.40
2018-12-18T03:03:15.032Z,27.50
2018-12-18T03:04:21.451Z,28.40
2018-12-18T03:05:14.945Z,24.40
2018-12-18T03:06:14.792Z,27.10
2018-12-18T03:07:14.699Z,24.60
2018-12-18T03:08:14.663Z,25.10
2018-12-18T03:09:14.547Z,25.20
2018-12-18T03:10:14.479Z,23.10
2018-12-18T03:11:14.370Z,22.60
2018-12-18T03:12:14.275Z,28.90
2018-12-18T03:13:14.178Z,23.90
2018-12-18T03:14:14.127Z,27.10
2018-12-18T03:15:14.118Z,24.40
2018-12-18T03:16:13.915Z,26.10
2018-12-18T03:17:13.828Z,23.70
2018-12-18T03:18:13.809Z,22.70
2018-12-18T03:19:13.672Z,19.90
2018-12-18T03:20:13.626Z,23.50
2018-12-18T03:21:13.483Z,21.40
2018-12-18T03:22:13.436Z,21.10
2018-12-18T03:23:13.313Z,19.70
2018-12-18T03:24:13.211Z,20.60
2018-12-18T03:25:13.239Z,23.20
2018-12-18T03:26:13.024Z,19.90
2018-12-18T03:27:12.957Z,23.00
2018-12-18T03:28:12.957Z,23.00
2018-12-18T03:29:12.795Z,22.70
2018-12-18T03:30:12.759Z,20.20
2018-12-18T03:31:12.612Z,22.30
2018-12-18T03:32:12.563Z,21.30
2018-12-18T03:33:12.434Z,19.70
2018-12-18T03:34:12.348Z,20.90
2018-12-18T03:35:12.292Z,21.00
2018-12-18T03:36:12.193Z,23.90
2018-12-18T03:37:12.093Z,18.70
2018-12-18T03:38:12.107Z,19.40
2018-12-18T03:39:12.308Z,21.00
2018-12-18T03:40:11.832Z,21.90
2018-12-18T03:41:11.815Z,20.70
2018-12-18T03:42:11.653Z,19.90
2018-12-18T03:43:11.563Z,19.20
2018-12-18T03:44:11.573Z,21.10
2018-12-18T03:45:11.387Z,19.70
2018-12-18T03:46:11.336Z,21.60
2018-12-18T03:47:11.220Z,20.00
2018-12-18T03:48:11.142Z,19.80
2018-12-18T03:49:11.049Z,18.20
2018-12-18T03:50:10.959Z,19.70
2018-12-18T03:51:10.956Z,20.80
2018-12-18T03:52:10.799Z,21.90
2018-12-18T03:53:10.696Z,20.70
2018-12-18T03:54:10.713Z,22.40
2018-12-18T03:55:10.521Z,18.90
2018-12-18T03:56:10.493Z,22.10
2018-12-18T03:57:10.339Z,22.10
2018-12-18T03:58:10.299Z,16.00
2018-12-18T03:59:10.187Z,21.50
2018-12-18T04:00:10.144Z,19.30
2018-12-18T04:01:10.005Z,17.90
2018-12-18T04:02:10.050Z,18.60
2018-12-18T04:03:09.818Z,19.40
2018-12-18T04:04:09.734Z,19.30
2018-12-18T04:05:09.752Z,22.90
2018-12-18T04:06:09.556Z,18.00
2018-12-18T04:07:09.471Z,18.80
2018-12-18T04:08:09.450Z,22.20
2018-12-18T04:09:09.300Z,19.00
2018-12-18T04:10:09.225Z,18.30
2018-12-18T04:11:09.159Z,18.00
2018-12-18T04:12:09.034Z,18.70
2018-12-18T04:13:08.958Z,15.20
2018-12-18T04:14:08.981Z,18.20
2018-12-18T04:15:08.802Z,19.80
2018-12-18T04:16:08.792Z,17.10
2018-12-18T04:17:08.626Z,21.40
2018-12-18T04:18:08.598Z,18.00
2018-12-18T04:19:08.432Z,20.10
2018-12-18T04:20:08.438Z,16.70
2018-12-18T04:21:08.251Z,15.70
2018-12-18T04:22:08.218Z,17.50
2018-12-18T04:23:08.086Z,20.00
2018-12-18T04:24:07.985Z,15.40
2018-12-18T04:25:07.930Z,17.50
2018-12-18T04:26:07.944Z,16.60
2018-12-18T04:27:07.742Z,19.50
2018-12-18T04:28:07.656Z,13.60
2018-12-18T04:29:07.549Z,17.20
2018-12-18T04:30:07.586Z,13.00
2018-12-18T04:31:07.380Z,14.20
2018-12-18T04:32:07.297Z,13.20
2018-12-18T04:33:07.262Z,17.00
2018-12-18T04:34:07.135Z,14.70
2018-12-18T04:35:07.043Z,14.90
2018-12-18T04:36:06.964Z,14.90
2018-12-18T04:37:06.856Z,15.70
2018-12-18T04:38:06.770Z,13.20
2018-12-18T04:39:06.783Z,13.80
2018-12-18T04:40:06.625Z,14.80
2018-12-18T04:41:06.603Z,12.90
2018-12-18T04:42:06.429Z,15.10
2018-12-18T04:43:06.425Z,12.80
2018-12-18T04:44:06.252Z,15.60
2018-12-18T04:45:06.261Z,13.70
2018-12-18T04:46:06.151Z,13.30
2018-12-18T04:47:06.035Z,14.10
2018-12-18T04:48:05.907Z,14.10
2018-12-18T04:49:05.829Z,13.00
2018-12-18T04:50:05.802Z,17.40
2018-12-18T04:51:05.640Z,14.00
2018-12-18T04:52:05.567Z,13.90
2018-12-18T04:53:05.543Z,12.70
2018-12-18T04:54:05.381Z,12.50
2018-12-18T04:55:05.322Z,12.00
2018-12-18T04:56:05.281Z,12.40
2018-12-18T04:57:05.115Z,12.20
2018-12-18T04:58:05.097Z,14.00
2018-12-18T04:59:04.951Z,14.70
2018-12-18T05:00:04.890Z,13.60
2018-12-18T05:01:04.810Z,11.30
2018-12-18T05:02:04.695Z,12.10
2018-12-18T05:03:04.594Z,12.80
2018-12-18T05:04:04.620Z,14.60
2018-12-18T05:05:04.538Z,13.70
2018-12-18T05:06:04.422Z,13.50
2018-12-18T05:07:04.240Z,13.90
2018-12-18T05:08:04.232Z,12.70
2018-12-18T05:09:04.083Z,13.20
2018-12-18T05:10:04.039Z,14.60
2018-12-18T05:11:03.895Z,13.00
2018-12-18T05:12:03.829Z,12.20
2018-12-18T05:13:03.743Z,14.20
2018-12-18T05:14:03.658Z,13.40
2018-12-18T05:15:03.537Z,11.80
2018-12-18T05:16:03.511Z,11.40
2018-12-18T05:17:03.384Z,12.50
2018-12-18T05:18:03.381Z,12.10
2018-12-18T05:19:03.198Z,10.90
2018-12-18T05:20:03.203Z,11.90
2018-12-18T05:21:03.047Z,13.50
2018-12-18T05:22:02.999Z,10.60
2018-12-18T05:23:02.854Z,8.60
2018-12-18T05:24:02.763Z,12.10
2018-12-18T05:25:02.712Z,11.00
2018-12-18T05:26:02.609Z,11.80
2018-12-18T05:27:02.526Z,8.90
2018-12-18T05:28:02.526Z,9.40
2018-12-18T05:29:02.335Z,10.30
2018-12-18T05:30:02.258Z,9.90
2018-12-18T05:31:02.267Z,9.20
2018-12-18T05:32:02.064Z,9.60
2018-12-18T05:33:02.051Z,9.30
2018-12-18T05:34:01.894Z,9.80
2018-12-18T05:35:01.818Z,10.80
2018-12-18T05:36:01.762Z,10.30
2018-12-18T05:37:01.652Z,10.80
2018-12-18T05:38:01.542Z,11.60
2018-12-18T05:39:01.574Z,11.00
2018-12-18T05:40:01.372Z,11.70
2018-12-18T05:41:01.290Z,12.80
2018-12-18T05:42:01.326Z,11.60
2018-12-18T05:43:01.111Z,8.80
2018-12-18T05:44:01.028Z,22.60
2018-12-18T05:45:00.998Z,14.60
2018-12-18T05:46:00.861Z,12.30
2018-12-18T05:47:00.877Z,12.40
2018-12-18T05:48:00.683Z,10.10
2018-12-18T05:49:00.617Z,10.90
2018-12-18T05:50:00.522Z,9.20
2018-12-18T05:51:00.534Z,8.90
2018-12-18T05:52:00.356Z,12.10
2018-12-18T05:53:00.355Z,10.10
2018-12-18T05:54:00.159Z,10.20
2018-12-18T05:55:00.079Z,10.10
2018-12-18T05:56:00.047Z,9.80
2018-12-18T05:56:59.913Z,10.70
2018-12-18T05:57:59.803Z,11.30
2018-12-18T05:58:59.809Z,10.10
2018-12-18T05:59:59.630Z,11.00
2018-12-18T06:00:59.548Z,9.70
2018-12-18T06:01:59.502Z,9.40
2018-12-18T06:02:59.385Z,9.90
2018-12-18T06:03:59.278Z,10.00
2018-12-18T06:05:03.133Z,8.90
2018-12-18T06:05:59.122Z,12.20
2018-12-18T06:06:59.039Z,10.30
2018-12-18T06:07:58.950Z,11.30
2018-12-18T06:08:58.855Z,8.80
2018-12-18T06:09:58.766Z,12.00
2018-12-18T06:10:58.690Z,8.60
2018-12-18T06:11:58.605Z,9.80
2018-12-18T06:12:58.546Z,10.50
2018-12-18T06:13:58.424Z,12.90
2018-12-18T06:14:58.395Z,10.10
2018-12-18T06:15:58.246Z,11.00
2018-12-18T06:16:58.163Z,12.20
2018-12-18T06:17:58.096Z,11.10
2018-12-18T06:18:58.002Z,8.60
2018-12-18T06:19:57.893Z,10.90
2018-12-18T06:20:57.810Z,12.30
2018-12-18T06:21:57.721Z,11.00
2018-12-18T06:22:57.659Z,11.00
2018-12-18T06:23:57.550Z,14.00
2018-12-18T06:24:57.468Z,9.90
2018-12-18T06:25:57.384Z,13.50
2018-12-18T06:26:57.306Z,9.70
2018-12-18T06:27:57.231Z,10.30
2018-12-18T06:28:57.134Z,12.60
2018-12-18T06:29:57.050Z,12.40
2018-12-18T06:30:56.942Z,13.70
2018-12-18T06:31:56.857Z,11.30
2018-12-18T06:32:56.787Z,10.90
2018-12-18T06:33:56.680Z,12.50
2018-12-18T06:34:56.590Z,13.50
2018-12-18T06:35:56.508Z,9.60
2018-12-18T06:36:56.424Z,15.30
2018-12-18T06:37:56.339Z,15.50
2018-12-18T06:38:56.266Z,11.90
2018-12-18T06:39:56.172Z,11.10
2018-12-18T06:40:56.062Z,10.60
2018-12-18T06:41:56.001Z,11.70
2018-12-18T06:42:55.892Z,13.80
2018-12-18T06:43:55.812Z,10.20
2018-12-18T06:44:55.727Z,12.70
2018-12-18T06:45:55.636Z,12.80
2018-12-18T06:46:55.534Z,12.60
2018-12-18T06:47:55.476Z,13.60
2018-12-18T06:48:55.383Z,11.00
2018-12-18T06:49:55.312Z,11.30
2018-12-18T06:50:55.185Z,10.50
2018-12-18T06:51:55.091Z,13.10
2018-12-18T06:52:55.007Z,14.40
2018-12-18T06:53:54.962Z,15.00
2018-12-18T06:54:54.840Z,12.80
2018-12-18T06:55:54.747Z,13.70
2018-12-18T06:56:54.703Z,10.20
2018-12-18T06:57:54.582Z,14.80
2018-12-18T06:58:54.515Z,14.00
2018-12-18T06:59:54.428Z,12.70
2018-12-18T07:00:54.327Z,13.70
2018-12-18T07:01:54.241Z,13.20
2018-12-18T07:02:54.173Z,13.60
2018-12-18T07:03:54.110Z,13.70
2018-12-18T07:04:53.969Z,14.10
2018-12-18T07:05:53.895Z,13.40
2018-12-18T07:06:53.798Z,14.80
2018-12-18T07:07:57.325Z,10.50
2018-12-18T07:08:53.650Z,17.50
2018-12-18T07:09:53.539Z,10.20
2018-12-18T07:10:53.450Z,14.00
2018-12-18T07:11:53.372Z,13.30
2018-12-18T07:12:53.293Z,13.20
2018-12-18T07:13:53.205Z,14.30
2018-12-18T07:14:53.109Z,12.90
2018-12-18T07:15:53.036Z,12.10
2018-12-18T07:16:52.944Z,14.00
2018-12-18T07:17:52.868Z,13.30
2018-12-18T07:18:52.777Z,12.60
2018-12-18T07:19:52.672Z,15.10
2018-12-18T07:20:52.583Z,13.20
2018-12-18T07:21:52.487Z,13.40
2018-12-18T07:22:52.403Z,11.50
2018-12-18T07:23:53.414Z,12.80
2018-12-18T07:24:52.235Z,13.40
2018-12-18T07:25:52.143Z,11.70
2018-12-18T07:26:52.076Z,11.30
2018-12-18T07:27:51.987Z,11.50
2018-12-18T07:28:51.918Z,12.40
2018-12-18T07:29:51.794Z,13.20
2018-12-18T07:30:51.711Z,12.10
2018-12-18T07:31:51.644Z,12.80
2018-12-18T07:32:51.534Z,9.80
2018-12-18T07:33:51.477Z,13.20
2018-12-18T07:34:51.382Z,11.60
2018-12-18T07:35:51.264Z,11.10
2018-12-18T07:36:51.191Z,12.80
2018-12-18T07:37:51.111Z,12.50
2018-12-18T07:38:51.059Z,11.00
2018-12-18T07:39:50.934Z,11.80
2018-12-18T07:40:50.859Z,13.30
2018-12-18T07:41:50.747Z,10.80
2018-12-18T07:42:50.684Z,11.80
2018-12-18T07:43:50.578Z,10.60
2018-12-18T07:44:50.505Z,12.00
2018-12-18T07:45:50.411Z,10.10
2018-12-18T07:46:50.323Z,9.50
2018-12-18T07:47:50.256Z,11.00
2018-12-18T07:48:50.182Z,12.60
2018-12-18T07:49:50.087Z,10.90
2018-12-18T07:50:49.977Z,10.90
2018-12-18T07:51:49.888Z,11.70
2018-12-18T07:52:49.819Z,7.60
2018-12-18T07:53:49.720Z,10.70
2018-12-18T07:54:49.645Z,8.90
2018-12-18T07:55:49.545Z,11.50
2018-12-18T07:56:49.488Z,9.90
2018-12-18T07:57:49.364Z,11.70
2018-12-18T07:58:49.278Z,12.50
2018-12-18T07:59:49.217Z,13.00
2018-12-18T08:00:49.096Z,10.20
2018-12-18T08:01:49.038Z,12.30
2018-12-18T08:02:48.938Z,9.50
2018-12-18T08:03:48.840Z,9.70
2018-12-18T08:04:48.776Z,10.20
2018-12-18T08:05:48.688Z,10.30
2018-12-18T08:06:48.587Z,11.90
2018-12-18T08:07:48.509Z,9.40
2018-12-18T08:08:48.404Z,9.70
2018-12-18T08:09:48.358Z,11.10
2018-12-18T08:10:48.232Z,12.00
2018-12-18T08:11:48.148Z,10.00
2018-12-18T08:12:48.081Z,12.60
2018-12-18T08:13:47.975Z,9.70
2018-12-18T08:14:47.934Z,10.80
2018-12-18T08:15:47.811Z,10.10
2018-12-18T08:16:47.743Z,12.00
2018-12-18T08:17:47.621Z,12.40
2018-12-18T08:18:47.558Z,10.50
2018-12-18T08:19:47.484Z,9.90
2018-12-18T08:20:47.375Z,8.00
2018-12-18T08:21:47.290Z,12.10
2018-12-18T08:22:47.211Z,9.30
2018-12-18T08:23:47.104Z,9.20
2018-12-18T08:24:47.059Z,11.60
2018-12-18T08:25:46.933Z,8.90
2018-12-18T08:26:46.864Z,9.70
2018-12-18T08:27:46.777Z,10.40
2018-12-18T08:28:46.685Z,11.60
2018-12-18T08:29:46.603Z,7.90
2018-12-18T08:30:46.510Z,8.90
2018-12-18T08:31:46.401Z,9.80
2018-12-18T08:32:46.323Z,11.60
2018-12-18T08:33:46.261Z,8.20
2018-12-18T08:34:46.192Z,8.50
2018-12-18T08:35:46.088Z,7.90
2018-12-18T08:36:45.981Z,10.00
2018-12-18T08:37:45.913Z,9.00
2018-12-18T08:38:45.828Z,9.90
2018-12-18T08:39:45.745Z,9.40
2018-12-18T08:40:45.645Z,9.30
2018-12-18T08:41:45.556Z,10.70
2018-12-18T08:42:45.464Z,8.50
2018-12-18T08:43:45.396Z,11.10
2018-12-18T08:44:45.298Z,7.50
2018-12-18T08:45:45.208Z,9.40
2018-12-18T08:46:45.124Z,12.40
2018-12-18T08:47:45.105Z,10.80
2018-12-18T08:48:44.981Z,8.10
2018-12-18T08:49:44.874Z,8.80
2018-12-18T08:50:44.799Z,11.80
2018-12-18T08:51:44.691Z,9.50
2018-12-18T08:52:44.625Z,8.50
2018-12-18T08:53:44.521Z,14.80
2018-12-18T08:54:44.476Z,18.30
2018-12-18T08:55:44.347Z,11.50
2018-12-18T08:56:44.293Z,20.00
2018-12-18T08:57:44.178Z,12.20
2018-12-18T08:58:44.106Z,9.90
2018-12-18T08:59:44.022Z,8.60
2018-12-18T09:00:43.913Z,11.40
2018-12-18T09:01:43.829Z,9.70
2018-12-18T09:02:43.753Z,9.60
2018-12-18T09:03:43.654Z,8.90
2018-12-18T09:04:43.609Z,7.90
2018-12-18T09:05:43.575Z,10.00
2018-12-18T09:06:43.406Z,9.10
2018-12-18T09:07:43.312Z,9.20
2018-12-18T09:08:43.249Z,10.20
2018-12-18T09:09:43.161Z,6.50
2018-12-18T09:10:43.081Z,9.90
2018-12-18T09:11:42.975Z,9.80
2018-12-18T09:12:42.902Z,7.60
2018-12-18T09:13:42.792Z,14.90
2018-12-18T09:14:42.767Z,6.80
2018-12-18T09:15:42.627Z,7.20
2018-12-18T09:16:42.556Z,9.30
2018-12-18T09:17:42.469Z,7.60
2018-12-18T09:18:42.382Z,11.90
2018-12-18T09:19:42.289Z,7.90
2018-12-18T09:20:42.231Z,9.00
2018-12-18T09:21:42.106Z,6.50
2018-12-18T09:22:42.039Z,9.40
2018-12-18T09:23:41.960Z,11.60
2018-12-18T09:24:41.874Z,8.20
2018-12-18T09:25:41.791Z,8.60
2018-12-18T09:26:41.706Z,9.50
2018-12-18T09:27:41.605Z,7.40
2018-12-18T09:28:41.515Z,9.70
2018-12-18T09:29:41.448Z,9.20
2018-12-18T09:30:42.758Z,7.50
2018-12-18T09:31:41.261Z,8.50
2018-12-18T09:32:41.183Z,9.50
2018-12-18T09:33:41.089Z,8.10
2018-12-18T09:34:41.012Z,7.50
2018-12-18T09:35:41.062Z,8.40
2018-12-18T09:36:40.861Z,6.80
2018-12-18T09:37:40.776Z,8.00
2018-12-18T09:38:40.677Z,9.40
2018-12-18T09:39:40.597Z,9.60
2018-12-18T09:40:40.509Z,8.50
2018-12-18T09:41:40.431Z,11.10
2018-12-18T09:42:40.343Z,10.90
2018-12-18T09:43:40.247Z,7.70
2018-12-18T09:44:40.174Z,7.80
2018-12-18T09:45:40.088Z,8.90
2018-12-18T09:46:40.002Z,6.50
2018-12-18T09:47:39.943Z,8.90
2018-12-18T09:48:39.822Z,7.00
2018-12-18T09:49:39.747Z,11.00
2018-12-18T09:50:39.687Z,7.70
2018-12-18T09:51:39.567Z,8.30
2018-12-18T09:52:39.474Z,8.50
2018-12-18T09:53:39.407Z,8.00
2018-12-18T09:54:39.303Z,9.40
2018-12-18T09:55:39.240Z,10.10
2018-12-18T09:56:39.163Z,6.50
2018-12-18T09:57:39.068Z,7.50
2018-12-18T09:58:38.984Z,7.40
2018-12-18T09:59:38.878Z,7.10
2018-12-18T10:00:38.833Z,7.50
2018-12-18T10:01:38.726Z,7.10
2018-12-18T10:02:38.637Z,7.70
2018-12-18T10:03:38.559Z,7.30
2018-12-18T10:04:38.471Z,7.50
2018-12-18T10:05:38.395Z,8.90
2018-12-18T10:06:38.301Z,10.20
2018-12-18T10:07:38.227Z,10.60
2018-12-18T10:08:38.133Z,8.30
2018-12-18T10:09:38.041Z,8.20
2018-12-18T10:10:37.974Z,7.60
2018-12-18T10:11:37.865Z,8.90
2018-12-18T10:12:37.780Z,10.20
2018-12-18T10:13:37.706Z,10.00
2018-12-18T10:14:37.637Z,9.20
2018-12-18T10:15:37.561Z,8.50
2018-12-18T10:16:37.473Z,10.10
2018-12-18T10:17:37.371Z,7.70
2018-12-18T10:18:37.290Z,11.10
2018-12-18T10:19:37.223Z,8.50
2018-12-18T10:20:37.135Z,9.70
2018-12-18T10:21:37.028Z,8.00
2018-12-18T10:22:36.962Z,7.60
2018-12-18T10:23:36.870Z,7.50
2018-12-18T10:24:36.796Z,8.50
2018-12-18T10:25:36.706Z,9.40
2018-12-18T10:26:36.617Z,11.00
2018-12-18T10:27:36.522Z,8.00
2018-12-18T10:28:36.450Z,6.50
2018-12-18T10:29:36.373Z,10.50
2018-12-18T10:30:36.299Z,7.80
2018-12-18T10:31:36.210Z,9.10
2018-12-18T10:32:36.115Z,7.90
2018-12-18T10:33:36.020Z,8.70
2018-12-18T10:34:35.944Z,6.60
2018-12-18T10:35:36.719Z,9.40
2018-12-18T10:36:35.763Z,8.10
2018-12-18T10:37:35.708Z,10.00
2018-12-18T10:38:35.606Z,7.50
2018-12-18T10:39:35.526Z,9.00
2018-12-18T10:40:35.462Z,7.20
2018-12-18T10:41:35.405Z,6.30
2018-12-18T10:42:35.281Z,8.00
2018-12-18T10:43:35.179Z,8.60
2018-12-18T10:44:35.109Z,8.50
2018-12-18T10:45:35.062Z,9.40
2018-12-18T10:46:34.922Z,8.70
2018-12-18T10:47:34.847Z,8.80
2018-12-18T10:48:35.784Z,7.80
2018-12-18T10:49:34.691Z,9.20
2018-12-18T10:50:34.618Z,10.20
2018-12-18T10:51:34.540Z,8.80
2018-12-18T10:52:34.433Z,6.80
2018-12-18T10:53:34.355Z,9.10
2018-12-18T10:54:34.270Z,7.90
2018-12-18T10:55:34.192Z,9.60
2018-12-18T10:56:34.113Z,7.40
2018-12-18T10:57:34.028Z,6.50
2018-12-18T10:58:33.939Z,8.00
2018-12-18T10:59:33.908Z,10.00
2018-12-18T11:00:33.765Z,9.40
2018-12-18T11:01:33.702Z,8.60
2018-12-18T11:02:33.594Z,7.90
2018-12-18T11:03:33.517Z,8.80
2018-12-18T11:04:33.450Z,8.00
2018-12-18T11:05:33.326Z,9.10
2018-12-18T11:06:33.275Z,10.10
2018-12-18T11:07:33.182Z,6.20
2018-12-18T11:08:33.092Z,7.80
2018-12-18T11:09:33.023Z,6.50
2018-12-18T11:10:32.919Z,7.70
2018-12-18T11:11:32.851Z,6.40
2018-12-18T11:12:32.772Z,10.80
2018-12-18T11:13:32.678Z,7.60
2018-12-18T11:14:32.591Z,10.00
2018-12-18T11:15:32.518Z,10.00
2018-12-18T11:16:37.244Z,8.40
2018-12-18T11:17:32.349Z,8.40
2018-12-18T11:18:32.653Z,8.40
2018-12-18T11:19:32.173Z,11.50
2018-12-18T11:20:32.092Z,7.90
2018-12-18T11:21:32.046Z,7.10
2018-12-18T11:22:31.926Z,7.60
2018-12-18T11:23:31.841Z,6.50
2018-12-18T11:24:31.765Z,7.10
2018-12-18T11:25:31.685Z,7.30
2018-12-18T11:26:31.619Z,8.00
2018-12-18T11:27:31.505Z,7.50
2018-12-18T11:28:31.434Z,7.50
2018-12-18T11:29:31.332Z,5.10
2018-12-18T11:30:31.268Z,9.80
2018-12-18T11:31:31.202Z,7.10
2018-12-18T11:32:33.160Z,8.80
2018-12-18T11:33:31.007Z,8.50
2018-12-18T11:34:30.929Z,7.00
2018-12-18T11:35:30.845Z,7.30
2018-12-18T11:36:30.768Z,12.30
2018-12-18T11:37:30.682Z,7.60
2018-12-18T11:38:30.585Z,9.60
2018-12-18T11:39:30.523Z,8.10
2018-12-18T11:40:30.410Z,8.60
2018-12-18T11:41:30.351Z,8.60
2018-12-18T11:42:30.261Z,9.40
2018-12-18T11:43:30.160Z,7.50
2018-12-18T11:44:30.148Z,8.60
2018-12-18T11:45:30.060Z,9.80
2018-12-18T11:46:29.937Z,8.80
2018-12-18T11:47:29.862Z,7.30
2018-12-18T11:48:29.757Z,7.80
2018-12-18T11:49:29.656Z,5.90
2018-12-18T11:50:29.595Z,7.90
2018-12-18T11:51:29.529Z,6.80
2018-12-18T11:52:29.406Z,7.90
2018-12-18T11:53:29.339Z,6.20
2018-12-18T11:54:29.251Z,6.40
2018-12-18T11:55:29.160Z,11.30
2018-12-18T11:56:29.111Z,7.50
2018-12-18T11:57:29.006Z,6.80
2018-12-18T11:58:28.928Z,5.30
2018-12-18T11:59:28.836Z,7.80
2018-12-18T12:00:28.749Z,7.50
2018-12-18T12:01:28.695Z,8.20
2018-12-18T12:02:28.604Z,8.20
2018-12-18T12:03:28.490Z,6.50
2018-12-18T12:04:28.433Z,6.40
2018-12-18T12:05:28.337Z,9.60
2018-12-18T12:06:28.280Z,7.70
2018-12-18T12:07:28.162Z,6.50
2018-12-18T12:08:28.075Z,6.80
2018-12-18T12:09:28.029Z,8.60
2018-12-18T12:10:27.920Z,10.60
2018-12-18T12:11:27.882Z,8.90
2018-12-18T12:12:27.751Z,8.50
2018-12-18T12:13:27.685Z,6.80
2018-12-18T12:14:27.591Z,7.50
2018-12-18T12:15:27.503Z,9.20
2018-12-18T12:16:27.466Z,8.80
2018-12-18T12:17:27.362Z,6.00
2018-12-18T12:18:27.252Z,5.70
2018-12-18T12:19:27.186Z,8.50
2018-12-18T12:20:27.084Z,7.90
2018-12-18T12:21:27.032Z,9.00
2018-12-18T12:22:26.935Z,8.60
2018-12-18T12:23:26.867Z,7.70
2018-12-18T12:24:26.744Z,7.00
2018-12-18T12:25:26.707Z,8.40
2018-12-18T12:26:26.588Z,9.10
2018-12-18T12:27:26.539Z,5.50
2018-12-18T12:28:26.423Z,7.80
2018-12-18T12:29:26.342Z,6.60
2018-12-18T12:30:26.263Z,7.60
2018-12-18T12:31:26.183Z,6.40
2018-12-18T12:32:26.101Z,10.50
2018-12-18T12:33:26.032Z,7.10
2018-12-18T12:34:25.936Z,8.20
2018-12-18T12:35:25.860Z,7.50
2018-12-18T12:36:29.673Z,6.90
2018-12-18T12:37:25.701Z,8.10
2018-12-18T12:38:25.590Z,9.60
2018-12-18T12:39:25.534Z,10.50
2018-12-18T12:40:25.426Z,8.10
2018-12-18T12:41:25.358Z,6.60
2018-12-18T12:42:25.284Z,5.90
2018-12-18T12:43:25.168Z,7.40
2018-12-18T12:44:25.104Z,8.60
2018-12-18T12:45:25.010Z,10.40
2018-12-18T12:46:24.920Z,8.00
2018-12-18T12:47:24.892Z,6.20
2018-12-18T12:48:24.761Z,8.40
2018-12-18T12:49:24.661Z,9.30
2018-12-18T12:50:24.599Z,10.00
2018-12-18T12:51:24.508Z,7.30
2018-12-18T12:52:24.447Z,7.60
2018-12-18T12:53:24.354Z,5.80
2018-12-18T12:54:24.273Z,8.20
2018-12-18T12:55:24.172Z,7.50
2018-12-18T12:56:24.105Z,10.20
2018-12-18T12:57:24.089Z,8.20
2018-12-18T12:58:23.931Z,8.20
2018-12-18T12:59:23.848Z,8.90
2018-12-18T13:00:23.768Z,8.90